sensor_id;sensor_type;location;lat;lon;timestamp;temperature;humidity
13591;DHT22;6866;50.778;7.206;2022-12-18T00:01:13;-4.40;99.90
13591;DHT22;6866;50.778;7.206;2022-12-18T00:03:38;-4.40;99.90
13591;DHT22;6866;50.778;7.206;2022-12-18T00:06:04;-4.40;99.90
13591;DHT22;6866;50.778;7.206;2022-12-18T00:08:30;-4.50;99.90
13591;DHT22;6866;50.778;7.206;2022-12-18T00:10:55;-4.50;99.90
13591;DHT22;6866;50.778;7.206;2022-12-18T00:13:21;-4.50;99.90
13591;DHT22;6866;50.778;7.206;2022-12-18T00:15:46;-4.50;99.90
13591;DHT22;6866;50.778;7.206;2022-12-18T00:18:12;-4.60;99.90
13591;DHT22;6866;50.778;7.206;2022-12-18T00:20:38;-4.60;99.90
13591;DHT22;6866;50.778;7.206;2022-12-18T00:23:06;-4.40;99.90
13591;DHT22;6866;50.778;7.206;2022-12-18T00:25:35;-4.50;99.90
13591;DHT22;6866;50.778;7.206;2022-12-18T00:28:02;-4.40;99.90
13591;DHT22;6866;50.778;7.206;2022-12-18T00:30:28;-4.40;99.90
13591;DHT22;6866;50.778;7.206;2022-12-18T00:32:54;-4.40;99.90
13591;DHT22;6866;50.778;7.206;2022-12-18T00:35:19;-4.40;99.90
13591;DHT22;6866;50.778;7.206;2022-12-18T00:37:45;-4.50;99.90
13591;DHT22;6866;50.778;7.206;2022-12-18T00:40:11;-4.50;99.90
13591;DHT22;6866;50.778;7.206;2022-12-18T00:42:36;-4.50;99.90
13591;DHT22;6866;50.778;7.206;2022-12-18T00:45:21;-4.40;99.90
13591;DHT22;6866;50.778;7.206;2022-12-18T00:47:49;-4.40;99.90
13591;DHT22;6866;50.778;7.206;2022-12-18T00:50:15;-4.50;99.90
13591;DHT22;6866;50.778;7.206;2022-12-18T00:52:40;-4.60;99.90
13591;DHT22;6866;50.778;7.206;2022-12-18T00:55:06;-4.50;99.90
13591;DHT22;6866;50.778;7.206;2022-12-18T00:57:32;-4.50;99.90
13591;DHT22;6866;50.778;7.206;2022-12-18T00:59:57;-4.40;99.90
13591;DHT22;6866;50.778;7.206;2022-12-18T01:02:23;-4.50;99.90
13591;DHT22;6866;50.778;7.206;2022-12-18T01:04:48;-4.40;99.90
13591;DHT22;6866;50.778;7.206;2022-12-18T01:07:14;-4.50;99.90
13591;DHT22;6866;50.778;7.206;2022-12-18T01:09:40;-4.40;99.90
13591;DHT22;6866;50.778;7.206;2022-12-18T01:12:05;-4.40;99.90
13591;DHT22;6866;50.778;7.206;2022-12-18T01:14:31;-4.30;99.90
13591;DHT22;6866;50.778;7.206;2022-12-18T01:16:56;-4.30;99.90
13591;DHT22;6866;50.778;7.206;2022-12-18T01:19:22;-4.20;99.90
13591;DHT22;6866;50.778;7.206;2022-12-18T01:21:49;-4.30;99.90
13591;DHT22;6866;50.778;7.206;2022-12-18T01:24:14;-4.20;99.90
13591;DHT22;6866;50.778;7.206;2022-12-18T01:26:40;-4.20;99.90
13591;DHT22;6866;50.778;7.206;2022-12-18T01:29:06;-4.20;99.90
13591;DHT22;6866;50.778;7.206;2022-12-18T01:31:33;-4.30;99.90
13591;DHT22;6866;50.778;7.206;2022-12-18T01:34:01;-4.30;99.90
13591;DHT22;6866;50.778;7.206;2022-12-18T01:36:30;-4.40;99.90
13591;DHT22;6866;50.778;7.206;2022-12-18T01:38:56;-4.30;99.90
13591;DHT22;6866;50.778;7.206;2022-12-18T01:41:27;-4.20;99.90
13591;DHT22;6866;50.778;7.206;2022-12-18T01:47:20;-4.60;99.90
13591;DHT22;6866;50.778;7.206;2022-12-18T01:49:46;-4.50;99.90
13591;DHT22;6866;50.778;7.206;2022-12-18T01:52:13;-4.50;99.90
13591;DHT22;6866;50.778;7.206;2022-12-18T01:54:39;-4.50;99.90
13591;DHT22;6866;50.778;7.206;2022-12-18T01:57:05;-4.50;99.90
13591;DHT22;6866;50.778;7.206;2022-12-18T01:59:31;-4.50;99.90
13591;DHT22;6866;50.778;7.206;2022-12-18T02:04:33;-4.40;99.90
13591;DHT22;6866;50.778;7.206;2022-12-18T02:07:34;-4.40;99.90
13591;DHT22;6866;50.778;7.206;2022-12-18T02:13:19;-4.50;99.90
13591;DHT22;6866;50.778;7.206;2022-12-18T02:18:50;-4.40;99.90
13591;DHT22;6866;50.778;7.206;2022-12-18T02:26:34;-4.20;99.90
13591;DHT22;6866;50.778;7.206;2022-12-18T02:29:28;-4.10;99.90
13591;DHT22;6866;50.778;7.206;2022-12-18T02:31:59;-4.10;99.90
13591;DHT22;6866;50.778;7.206;2022-12-18T02:34:29;-4.10;99.90
13591;DHT22;6866;50.778;7.206;2022-12-18T02:36:57;-4.20;99.80
13591;DHT22;6866;50.778;7.206;2022-12-18T02:39:25;-4.30;99.90
13591;DHT22;6866;50.778;7.206;2022-12-18T02:41:52;-4.40;99.80
13591;DHT22;6866;50.778;7.206;2022-12-18T02:44:18;-4.50;99.90
13591;DHT22;6866;50.778;7.206;2022-12-18T02:46:46;-4.40;99.90
13591;DHT22;6866;50.778;7.206;2022-12-18T02:51:51;-4.70;99.90
13591;DHT22;6866;50.778;7.206;2022-12-18T02:54:36;-4.70;99.90
13591;DHT22;6866;50.778;7.206;2022-12-18T02:57:13;-4.60;99.90
13591;DHT22;6866;50.778;7.206;2022-12-18T03:00:18;-4.50;99.90
13591;DHT22;6866;50.778;7.206;2022-12-18T03:02:54;-4.50;99.90
13591;DHT22;6866;50.778;7.206;2022-12-18T03:05:43;-4.70;99.90
13591;DHT22;6866;50.778;7.206;2022-12-18T03:08:16;-4.70;99.90
13591;DHT22;6866;50.778;7.206;2022-12-18T03:10:49;-4.70;99.90
13591;DHT22;6866;50.778;7.206;2022-12-18T03:13:20;-4.60;99.90
13591;DHT22;6866;50.778;7.206;2022-12-18T03:15:50;-4.80;99.90
13591;DHT22;6866;50.778;7.206;2022-12-18T03:18:25;-5.00;99.90
13591;DHT22;6866;50.778;7.206;2022-12-18T03:20:52;-4.80;99.90
13591;DHT22;6866;50.778;7.206;2022-12-18T03:23:25;-4.80;99.90
13591;DHT22;6866;50.778;7.206;2022-12-18T03:25:57;-4.90;99.90
13591;DHT22;6866;50.778;7.206;2022-12-18T03:28:23;-4.80;99.90
13591;DHT22;6866;50.778;7.206;2022-12-18T03:30:58;-4.80;99.90
13591;DHT22;6866;50.778;7.206;2022-12-18T03:33:31;-4.90;99.90
13591;DHT22;6866;50.778;7.206;2022-12-18T03:35:59;-4.70;99.90
13591;DHT22;6866;50.778;7.206;2022-12-18T03:38:25;-4.80;99.90
13591;DHT22;6866;50.778;7.206;2022-12-18T03:41:03;-4.90;99.90
13591;DHT22;6866;50.778;7.206;2022-12-18T03:43:39;-5.00;99.90
13591;DHT22;6866;50.778;7.206;2022-12-18T03:46:38;-5.10;99.90
13591;DHT22;6866;50.778;7.206;2022-12-18T03:52:26;-5.00;99.90
13591;DHT22;6866;50.778;7.206;2022-12-18T03:54:55;-5.10;99.90
13591;DHT22;6866;50.778;7.206;2022-12-18T03:57:24;-5.00;99.90
13591;DHT22;6866;50.778;7.206;2022-12-18T03:59:58;-5.10;99.90
13591;DHT22;6866;50.778;7.206;2022-12-18T04:02:25;-5.00;99.90
13591;DHT22;6866;50.778;7.206;2022-12-18T04:04:53;-5.00;99.90
13591;DHT22;6866;50.778;7.206;2022-12-18T04:07:22;-5.00;99.90
13591;DHT22;6866;50.778;7.206;2022-12-18T04:09:49;-5.10;99.90
13591;DHT22;6866;50.778;7.206;2022-12-18T04:12:15;-5.10;99.90
13591;DHT22;6866;50.778;7.206;2022-12-18T04:14:41;-5.20;99.90
13591;DHT22;6866;50.778;7.206;2022-12-18T04:17:06;-5.20;99.90
13591;DHT22;6866;50.778;7.206;2022-12-18T04:19:32;-5.20;99.90
13591;DHT22;6866;50.778;7.206;2022-12-18T04:21:57;-5.10;99.90
13591;DHT22;6866;50.778;7.206;2022-12-18T04:24:23;-5.10;99.90
13591;DHT22;6866;50.778;7.206;2022-12-18T04:26:48;-5.10;99.90
13591;DHT22;6866;50.778;7.206;2022-12-18T04:29:14;-5.20;99.90
13591;DHT22;6866;50.778;7.206;2022-12-18T04:31:39;-5.30;99.90
13591;DHT22;6866;50.778;7.206;2022-12-18T04:34:05;-5.30;99.90
13591;DHT22;6866;50.778;7.206;2022-12-18T04:36:30;-5.30;99.90
13591;DHT22;6866;50.778;7.206;2022-12-18T04:38:56;-5.30;99.90
13591;DHT22;6866;50.778;7.206;2022-12-18T04:41:22;-5.30;99.90
13591;DHT22;6866;50.778;7.206;2022-12-18T04:43:47;-5.40;99.90
13591;DHT22;6866;50.778;7.206;2022-12-18T04:46:13;-5.40;99.90
13591;DHT22;6866;50.778;7.206;2022-12-18T04:48:38;-5.30;99.90
13591;DHT22;6866;50.778;7.206;2022-12-18T04:51:05;-5.20;99.90
13591;DHT22;6866;50.778;7.206;2022-12-18T04:53:31;-5.10;99.90
13591;DHT22;6866;50.778;7.206;2022-12-18T04:56:08;-5.10;99.90
13591;DHT22;6866;50.778;7.206;2022-12-18T04:58:35;-5.00;99.90
13591;DHT22;6866;50.778;7.206;2022-12-18T05:01:01;-4.90;99.90
13591;DHT22;6866;50.778;7.206;2022-12-18T05:03:26;-5.00;99.90
13591;DHT22;6866;50.778;7.206;2022-12-18T05:05:52;-4.80;99.90
13591;DHT22;6866;50.778;7.206;2022-12-18T05:08:18;-4.90;99.90
13591;DHT22;6866;50.778;7.206;2022-12-18T05:10:43;-4.90;99.90
13591;DHT22;6866;50.778;7.206;2022-12-18T05:13:10;-4.90;99.90
13591;DHT22;6866;50.778;7.206;2022-12-18T05:15:36;-4.80;99.90
13591;DHT22;6866;50.778;7.206;2022-12-18T05:18:02;-4.80;99.90
13591;DHT22;6866;50.778;7.206;2022-12-18T05:20:29;-4.70;99.90
13591;DHT22;6866;50.778;7.206;2022-12-18T05:22:55;-4.70;99.80
13591;DHT22;6866;50.778;7.206;2022-12-18T05:25:21;-4.70;99.90
13591;DHT22;6866;50.778;7.206;2022-12-18T05:27:48;-4.90;99.40
13591;DHT22;6866;50.778;7.206;2022-12-18T05:30:14;-4.80;99.90
13591;DHT22;6866;50.778;7.206;2022-12-18T05:32:40;-4.80;99.90
13591;DHT22;6866;50.778;7.206;2022-12-18T05:35:10;-4.90;99.90
13591;DHT22;6866;50.778;7.206;2022-12-18T05:37:36;-5.00;99.90
13591;DHT22;6866;50.778;7.206;2022-12-18T05:40:03;-5.00;99.90
13591;DHT22;6866;50.778;7.206;2022-12-18T05:42:28;-5.00;99.90
13591;DHT22;6866;50.778;7.206;2022-12-18T05:44:54;-5.00;99.90
13591;DHT22;6866;50.778;7.206;2022-12-18T05:47:19;-5.00;99.90
13591;DHT22;6866;50.778;7.206;2022-12-18T05:49:45;-5.00;99.90
13591;DHT22;6866;50.778;7.206;2022-12-18T05:52:10;-4.90;99.90
13591;DHT22;6866;50.778;7.206;2022-12-18T05:54:36;-4.80;99.90
13591;DHT22;6866;50.778;7.206;2022-12-18T05:57:01;-4.70;99.90
13591;DHT22;6866;50.778;7.206;2022-12-18T05:59:27;-4.70;99.90
13591;DHT22;6866;50.778;7.206;2022-12-18T06:01:52;-4.60;99.90
13591;DHT22;6866;50.778;7.206;2022-12-18T06:04:18;-4.60;99.90
13591;DHT22;6866;50.778;7.206;2022-12-18T06:06:43;-4.60;99.90
13591;DHT22;6866;50.778;7.206;2022-12-18T06:09:09;-4.70;99.90
13591;DHT22;6866;50.778;7.206;2022-12-18T06:11:36;-4.70;99.90
13591;DHT22;6866;50.778;7.206;2022-12-18T06:14:03;-4.60;99.90
13591;DHT22;6866;50.778;7.206;2022-12-18T06:16:29;-4.70;99.90
13591;DHT22;6866;50.778;7.206;2022-12-18T06:19:03;-4.70;99.90
13591;DHT22;6866;50.778;7.206;2022-12-18T06:21:29;-4.60;99.90
13591;DHT22;6866;50.778;7.206;2022-12-18T06:23:55;-4.70;99.90
13591;DHT22;6866;50.778;7.206;2022-12-18T06:26:21;-4.70;99.90
13591;DHT22;6866;50.778;7.206;2022-12-18T06:28:46;-4.70;99.90
13591;DHT22;6866;50.778;7.206;2022-12-18T06:31:12;-4.70;99.90
13591;DHT22;6866;50.778;7.206;2022-12-18T06:33:38;-4.60;99.90
13591;DHT22;6866;50.778;7.206;2022-12-18T06:36:10;-4.70;99.90
13591;DHT22;6866;50.778;7.206;2022-12-18T06:38:37;-4.80;99.90
13591;DHT22;6866;50.778;7.206;2022-12-18T06:41:11;-4.90;99.90
13591;DHT22;6866;50.778;7.206;2022-12-18T06:43:37;-4.80;99.90
13591;DHT22;6866;50.778;7.206;2022-12-18T06:46:04;-4.80;99.90
13591;DHT22;6866;50.778;7.206;2022-12-18T06:48:30;-4.80;99.90
13591;DHT22;6866;50.778;7.206;2022-12-18T06:50:56;-4.80;99.90
13591;DHT22;6866;50.778;7.206;2022-12-18T06:53:21;-4.80;99.90
13591;DHT22;6866;50.778;7.206;2022-12-18T06:55:47;-4.80;99.90
13591;DHT22;6866;50.778;7.206;2022-12-18T06:58:12;-4.70;99.90
13591;DHT22;6866;50.778;7.206;2022-12-18T07:00:38;-4.80;99.90
13591;DHT22;6866;50.778;7.206;2022-12-18T07:03:03;-4.90;99.90
13591;DHT22;6866;50.778;7.206;2022-12-18T07:05:29;-4.70;99.90
13591;DHT22;6866;50.778;7.206;2022-12-18T07:07:55;-4.70;99.90
13591;DHT22;6866;50.778;7.206;2022-12-18T07:10:20;-4.60;99.90
13591;DHT22;6866;50.778;7.206;2022-12-18T07:12:46;-4.60;99.90
13591;DHT22;6866;50.778;7.206;2022-12-18T07:15:11;-4.60;99.90
13591;DHT22;6866;50.778;7.206;2022-12-18T07:17:37;-4.60;99.90
13591;DHT22;6866;50.778;7.206;2022-12-18T07:20:03;-4.80;99.90
13591;DHT22;6866;50.778;7.206;2022-12-18T07:22:29;-4.90;99.90
13591;DHT22;6866;50.778;7.206;2022-12-18T07:24:54;-4.80;99.90
13591;DHT22;6866;50.778;7.206;2022-12-18T07:27:21;-5.00;99.90
13591;DHT22;6866;50.778;7.206;2022-12-18T07:29:46;-5.20;99.90
13591;DHT22;6866;50.778;7.206;2022-12-18T07:32:12;-5.00;99.90
13591;DHT22;6866;50.778;7.206;2022-12-18T07:34:37;-5.00;99.90
13591;DHT22;6866;50.778;7.206;2022-12-18T07:37:03;-4.90;99.90
13591;DHT22;6866;50.778;7.206;2022-12-18T07:39:29;-4.90;99.90
13591;DHT22;6866;50.778;7.206;2022-12-18T07:41:54;-5.10;99.90
13591;DHT22;6866;50.778;7.206;2022-12-18T07:44:38;-5.00;99.90
13591;DHT22;6866;50.778;7.206;2022-12-18T07:47:04;-5.00;99.90
13591;DHT22;6866;50.778;7.206;2022-12-18T07:49:30;-5.00;99.90
13591;DHT22;6866;50.778;7.206;2022-12-18T07:51:56;-4.80;99.90
13591;DHT22;6866;50.778;7.206;2022-12-18T07:54:23;-4.80;99.90
13591;DHT22;6866;50.778;7.206;2022-12-18T07:56:50;-4.70;99.90
13591;DHT22;6866;50.778;7.206;2022-12-18T07:59:15;-4.60;99.90
13591;DHT22;6866;50.778;7.206;2022-12-18T08:01:41;-4.50;99.90
13591;DHT22;6866;50.778;7.206;2022-12-18T08:04:06;-4.40;99.90
13591;DHT22;6866;50.778;7.206;2022-12-18T08:06:32;-3.40;99.90
13591;DHT22;6866;50.778;7.206;2022-12-18T08:08:57;-1.50;94.70
13591;DHT22;6866;50.778;7.206;2022-12-18T08:11:25;-0.20;86.50
13591;DHT22;6866;50.778;7.206;2022-12-18T08:13:51;0.40;78.70
13591;DHT22;6866;50.778;7.206;2022-12-18T08:16:16;0.80;75.50
13591;DHT22;6866;50.778;7.206;2022-12-18T08:18:42;1.30;70.50
13591;DHT22;6866;50.778;7.206;2022-12-18T08:21:29;1.50;68.00
13591;DHT22;6866;50.778;7.206;2022-12-18T08:23:55;1.80;68.90
13591;DHT22;6866;50.778;7.206;2022-12-18T08:26:22;2.30;65.10
13591;DHT22;6866;50.778;7.206;2022-12-18T08:28:48;3.00;62.00
13591;DHT22;6866;50.778;7.206;2022-12-18T08:31:14;2.70;60.10
13591;DHT22;6866;50.778;7.206;2022-12-18T08:33:39;2.90;61.10
13591;DHT22;6866;50.778;7.206;2022-12-18T08:36:05;3.10;59.80
13591;DHT22;6866;50.778;7.206;2022-12-18T08:38:34;3.80;57.40
13591;DHT22;6866;50.778;7.206;2022-12-18T08:41:00;2.70;57.20
13591;DHT22;6866;50.778;7.206;2022-12-18T08:43:26;3.00;58.40
13591;DHT22;6866;50.778;7.206;2022-12-18T08:46:11;3.00;59.10
13591;DHT22;6866;50.778;7.206;2022-12-18T08:48:37;3.60;58.00
13591;DHT22;6866;50.778;7.206;2022-12-18T08:51:03;3.60;56.50
13591;DHT22;6866;50.778;7.206;2022-12-18T08:53:28;3.40;56.00
13591;DHT22;6866;50.778;7.206;2022-12-18T08:55:55;3.70;57.10
13591;DHT22;6866;50.778;7.206;2022-12-18T08:58:21;3.60;56.50
13591;DHT22;6866;50.778;7.206;2022-12-18T09:00:47;3.80;55.80
13591;DHT22;6866;50.778;7.206;2022-12-18T09:03:13;4.20;55.90
13591;DHT22;6866;50.778;7.206;2022-12-18T09:05:39;3.80;55.40
13591;DHT22;6866;50.778;7.206;2022-12-18T09:08:04;4.30;53.60
13591;DHT22;6866;50.778;7.206;2022-12-18T09:10:30;4.60;54.00
13591;DHT22;6866;50.778;7.206;2022-12-18T09:12:55;5.10;53.10
13591;DHT22;6866;50.778;7.206;2022-12-18T09:15:21;5.20;53.10
13591;DHT22;6866;50.778;7.206;2022-12-18T09:17:47;4.90;52.80
13591;DHT22;6866;50.778;7.206;2022-12-18T09:20:13;4.40;54.20
13591;DHT22;6866;50.778;7.206;2022-12-18T09:22:39;4.10;55.70
13591;DHT22;6866;50.778;7.206;2022-12-18T09:25:04;3.70;56.90
13591;DHT22;6866;50.778;7.206;2022-12-18T09:27:33;3.50;58.40
13591;DHT22;6866;50.778;7.206;2022-12-18T09:29:58;3.40;59.30
13591;DHT22;6866;50.778;7.206;2022-12-18T09:32:24;2.60;60.60
13591;DHT22;6866;50.778;7.206;2022-12-18T09:34:49;3.10;60.60
13591;DHT22;6866;50.778;7.206;2022-12-18T09:37:15;3.60;59.80
13591;DHT22;6866;50.778;7.206;2022-12-18T09:39:40;4.00;57.60
13591;DHT22;6866;50.778;7.206;2022-12-18T09:42:08;4.10;56.60
13591;DHT22;6866;50.778;7.206;2022-12-18T09:44:44;4.40;56.60
13591;DHT22;6866;50.778;7.206;2022-12-18T09:47:18;4.60;56.00
13591;DHT22;6866;50.778;7.206;2022-12-18T09:49:48;4.80;54.80
13591;DHT22;6866;50.778;7.206;2022-12-18T09:54:51;3.40;58.10
13591;DHT22;6866;50.778;7.206;2022-12-18T09:57:21;3.00;61.40
13591;DHT22;6866;50.778;7.206;2022-12-18T09:59:56;2.80;61.90
13591;DHT22;6866;50.778;7.206;2022-12-18T10:02:25;2.40;67.50
13591;DHT22;6866;50.778;7.206;2022-12-18T10:07:37;2.50;66.90
13591;DHT22;6866;50.778;7.206;2022-12-18T10:10:13;2.40;67.60
13591;DHT22;6866;50.778;7.206;2022-12-18T10:15:39;1.80;70.00
13591;DHT22;6866;50.778;7.206;2022-12-18T10:20:45;1.60;75.70
13591;DHT22;6866;50.778;7.206;2022-12-18T10:23:21;1.60;74.00
13591;DHT22;6866;50.778;7.206;2022-12-18T10:25:57;1.20;76.40
13591;DHT22;6866;50.778;7.206;2022-12-18T10:28:25;1.40;76.60
13591;DHT22;6866;50.778;7.206;2022-12-18T10:30:52;1.40;77.60
13591;DHT22;6866;50.778;7.206;2022-12-18T10:33:21;1.60;81.60
13591;DHT22;6866;50.778;7.206;2022-12-18T10:35:51;1.70;76.00
13591;DHT22;6866;50.778;7.206;2022-12-18T10:41:02;1.80;75.60
13591;DHT22;6866;50.778;7.206;2022-12-18T10:43:29;1.40;77.30
13591;DHT22;6866;50.778;7.206;2022-12-18T10:48:40;1.30;81.30
13591;DHT22;6866;50.778;7.206;2022-12-18T10:51:30;1.10;79.10
13591;DHT22;6866;50.778;7.206;2022-12-18T10:54:04;1.20;78.70
13591;DHT22;6866;50.778;7.206;2022-12-18T10:56:34;1.10;79.80
13591;DHT22;6866;50.778;7.206;2022-12-18T10:59:15;1.00;79.00
13591;DHT22;6866;50.778;7.206;2022-12-18T11:04:20;1.10;78.20
13591;DHT22;6866;50.778;7.206;2022-12-18T11:07:07;0.70;80.30
13591;DHT22;6866;50.778;7.206;2022-12-18T11:09:38;0.70;81.30
13591;DHT22;6866;50.778;7.206;2022-12-18T11:12:24;0.90;80.40
13591;DHT22;6866;50.778;7.206;2022-12-18T11:14:54;0.80;81.40
13591;DHT22;6866;50.778;7.206;2022-12-18T11:17:21;0.80;81.40
13591;DHT22;6866;50.778;7.206;2022-12-18T11:19:58;0.80;81.70
13591;DHT22;6866;50.778;7.206;2022-12-18T11:27:29;0.70;83.40
13591;DHT22;6866;50.778;7.206;2022-12-18T11:32:48;0.90;81.90
13591;DHT22;6866;50.778;7.206;2022-12-18T11:38:17;0.40;84.20
13591;DHT22;6866;50.778;7.206;2022-12-18T11:40:47;0.20;85.50
13591;DHT22;6866;50.778;7.206;2022-12-18T11:43:18;0.30;85.60
13591;DHT22;6866;50.778;7.206;2022-12-18T11:46:13;0.30;86.90
13591;DHT22;6866;50.778;7.206;2022-12-18T11:48:54;0.20;85.60
13591;DHT22;6866;50.778;7.206;2022-12-18T11:51:51;0.00;87.10
13591;DHT22;6866;50.778;7.206;2022-12-18T11:54:20;0.20;87.70
13591;DHT22;6866;50.778;7.206;2022-12-18T11:56:58;0.10;86.50
13591;DHT22;6866;50.778;7.206;2022-12-18T11:59:32;0.20;88.00
13591;DHT22;6866;50.778;7.206;2022-12-18T12:10:41;0.10;89.60
13591;DHT22;6866;50.778;7.206;2022-12-18T12:13:33;-0.10;88.40
13591;DHT22;6866;50.778;7.206;2022-12-18T12:18:43;-0.10;90.70
13591;DHT22;6866;50.778;7.206;2022-12-18T12:24:13;-0.10;90.30
13591;DHT22;6866;50.778;7.206;2022-12-18T12:27:04;0.00;89.80
13591;DHT22;6866;50.778;7.206;2022-12-18T12:32:29;0.20;90.60
13591;DHT22;6866;50.778;7.206;2022-12-18T12:40:03;-0.10;90.20
13591;DHT22;6866;50.778;7.206;2022-12-18T12:42:42;0.10;90.80
13591;DHT22;6866;50.778;7.206;2022-12-18T12:48:11;0.30;90.40
13591;DHT22;6866;50.778;7.206;2022-12-18T12:50:41;0.30;88.80
13591;DHT22;6866;50.778;7.206;2022-12-18T12:53:12;0.00;89.20
13591;DHT22;6866;50.778;7.206;2022-12-18T12:55:40;-0.10;91.00
13591;DHT22;6866;50.778;7.206;2022-12-18T12:58:23;-0.30;90.60
13591;DHT22;6866;50.778;7.206;2022-12-18T13:01:08;-0.20;90.70
13591;DHT22;6866;50.778;7.206;2022-12-18T13:09:00;0.00;90.20
13591;DHT22;6866;50.778;7.206;2022-12-18T13:11:44;0.10;90.00
13591;DHT22;6866;50.778;7.206;2022-12-18T13:14:37;0.30;90.50
13591;DHT22;6866;50.778;7.206;2022-12-18T13:19:49;0.10;90.60
13591;DHT22;6866;50.778;7.206;2022-12-18T13:22:30;0.40;90.50
13591;DHT22;6866;50.778;7.206;2022-12-18T13:24:56;0.30;89.00
13591;DHT22;6866;50.778;7.206;2022-12-18T13:38:38;0.40;90.80
13591;DHT22;6866;50.778;7.206;2022-12-18T13:43:48;0.30;90.90
13591;DHT22;6866;50.778;7.206;2022-12-18T13:49:36;0.30;91.50
13591;DHT22;6866;50.778;7.206;2022-12-18T13:52:55;0.30;91.50
13591;DHT22;6866;50.778;7.206;2022-12-18T13:55:05;0.00;92.20
13591;DHT22;6866;50.778;7.206;2022-12-18T13:57:36;0.30;92.80
13591;DHT22;6866;50.778;7.206;2022-12-18T14:00:26;0.40;92.30
13591;DHT22;6866;50.778;7.206;2022-12-18T14:02:53;0.40;91.30
13591;DHT22;6866;50.778;7.206;2022-12-18T14:05:34;0.20;91.70
13591;DHT22;6866;50.778;7.206;2022-12-18T14:08:03;0.20;92.20
13591;DHT22;6866;50.778;7.206;2022-12-18T14:10:30;0.20;92.80
13591;DHT22;6866;50.778;7.206;2022-12-18T14:12:56;0.20;92.60
13591;DHT22;6866;50.778;7.206;2022-12-18T14:17:57;0.10;92.80
13591;DHT22;6866;50.778;7.206;2022-12-18T14:20:25;0.10;93.00
13591;DHT22;6866;50.778;7.206;2022-12-18T14:22:51;0.10;92.90
13591;DHT22;6866;50.778;7.206;2022-12-18T14:25:25;0.10;92.60
13591;DHT22;6866;50.778;7.206;2022-12-18T14:28:08;0.00;92.80
13591;DHT22;6866;50.778;7.206;2022-12-18T14:30:39;0.00;93.10
13591;DHT22;6866;50.778;7.206;2022-12-18T14:33:16;-0.10;93.30
13591;DHT22;6866;50.778;7.206;2022-12-18T14:36:02;-0.10;93.00
13591;DHT22;6866;50.778;7.206;2022-12-18T14:38:34;-0.10;93.40
13591;DHT22;6866;50.778;7.206;2022-12-18T14:43:33;-0.30;94.00
13591;DHT22;6866;50.778;7.206;2022-12-18T14:46:00;-0.40;94.20
13591;DHT22;6866;50.778;7.206;2022-12-18T14:48:41;-0.40;94.60
13591;DHT22;6866;50.778;7.206;2022-12-18T14:51:19;-0.40;94.50
13591;DHT22;6866;50.778;7.206;2022-12-18T14:53:56;-0.40;94.30
13591;DHT22;6866;50.778;7.206;2022-12-18T14:56:25;-0.40;94.50
13591;DHT22;6866;50.778;7.206;2022-12-18T14:58:57;-0.40;94.60
13591;DHT22;6866;50.778;7.206;2022-12-18T15:01:35;-0.40;94.70
13591;DHT22;6866;50.778;7.206;2022-12-18T15:04:03;-0.60;94.80
13591;DHT22;6866;50.778;7.206;2022-12-18T15:06:35;-0.50;95.10
13591;DHT22;6866;50.778;7.206;2022-12-18T15:09:20;-0.60;94.80
13591;DHT22;6866;50.778;7.206;2022-12-18T15:11:46;-0.50;95.40
13591;DHT22;6866;50.778;7.206;2022-12-18T15:14:23;-0.50;95.20
13591;DHT22;6866;50.778;7.206;2022-12-18T15:16:53;-0.60;95.50
13591;DHT22;6866;50.778;7.206;2022-12-18T15:19:21;-0.50;95.40
13591;DHT22;6866;50.778;7.206;2022-12-18T15:21:47;-0.60;95.80
13591;DHT22;6866;50.778;7.206;2022-12-18T15:24:26;-0.80;95.90
13591;DHT22;6866;50.778;7.206;2022-12-18T15:26:52;-0.80;96.80
13591;DHT22;6866;50.778;7.206;2022-12-18T15:29:22;-0.80;96.70
13591;DHT22;6866;50.778;7.206;2022-12-18T15:32:18;-0.60;96.80
13591;DHT22;6866;50.778;7.206;2022-12-18T15:34:44;-0.50;96.60
13591;DHT22;6866;50.778;7.206;2022-12-18T15:37:10;-0.50;95.60
13591;DHT22;6866;50.778;7.206;2022-12-18T15:39:35;-0.40;95.40
13591;DHT22;6866;50.778;7.206;2022-12-18T15:42:01;-0.50;95.60
13591;DHT22;6866;50.778;7.206;2022-12-18T15:44:45;-0.40;95.70
13591;DHT22;6866;50.778;7.206;2022-12-18T15:47:12;-0.50;95.90
13591;DHT22;6866;50.778;7.206;2022-12-18T15:49:38;-0.40;95.60
13591;DHT22;6866;50.778;7.206;2022-12-18T15:52:04;-0.50;95.30
13591;DHT22;6866;50.778;7.206;2022-12-18T15:54:30;-0.40;95.30
13591;DHT22;6866;50.778;7.206;2022-12-18T15:57:15;-0.40;96.10
13591;DHT22;6866;50.778;7.206;2022-12-18T15:59:54;-0.60;95.90
13591;DHT22;6866;50.778;7.206;2022-12-18T16:02:22;-0.80;96.40
13591;DHT22;6866;50.778;7.206;2022-12-18T16:04:49;-0.70;96.50
13591;DHT22;6866;50.778;7.206;2022-12-18T16:07:15;-0.60;96.70
13591;DHT22;6866;50.778;7.206;2022-12-18T16:09:41;-0.70;96.00
13591;DHT22;6866;50.778;7.206;2022-12-18T16:12:15;-0.80;96.60
13591;DHT22;6866;50.778;7.206;2022-12-18T16:14:42;-0.90;97.10
13591;DHT22;6866;50.778;7.206;2022-12-18T16:17:10;-0.70;97.20
13591;DHT22;6866;50.778;7.206;2022-12-18T16:19:35;-0.60;96.80
13591;DHT22;6866;50.778;7.206;2022-12-18T16:22:02;-0.70;97.10
13591;DHT22;6866;50.778;7.206;2022-12-18T16:24:30;-0.80;97.20
13591;DHT22;6866;50.778;7.206;2022-12-18T16:26:58;-0.80;97.50
13591;DHT22;6866;50.778;7.206;2022-12-18T16:29:25;-0.90;98.10
13591;DHT22;6866;50.778;7.206;2022-12-18T16:32:01;-0.90;98.60
13591;DHT22;6866;50.778;7.206;2022-12-18T16:34:29;-0.90;98.20
13591;DHT22;6866;50.778;7.206;2022-12-18T16:36:57;-0.90;98.30
13591;DHT22;6866;50.778;7.206;2022-12-18T16:39:24;-0.80;98.30
13591;DHT22;6866;50.778;7.206;2022-12-18T16:41:50;-0.90;98.10
13591;DHT22;6866;50.778;7.206;2022-12-18T16:44:16;-0.90;98.30
13591;DHT22;6866;50.778;7.206;2022-12-18T16:46:42;-0.90;98.30
13591;DHT22;6866;50.778;7.206;2022-12-18T16:49:10;-1.00;98.40
13591;DHT22;6866;50.778;7.206;2022-12-18T16:51:36;-0.80;98.50
13591;DHT22;6866;50.778;7.206;2022-12-18T16:54:02;-0.90;98.10
13591;DHT22;6866;50.778;7.206;2022-12-18T16:56:28;-1.00;98.50
13591;DHT22;6866;50.778;7.206;2022-12-18T16:58:55;-1.00;98.70
13591;DHT22;6866;50.778;7.206;2022-12-18T17:01:22;-1.00;98.90
13591;DHT22;6866;50.778;7.206;2022-12-18T17:04:03;-0.90;98.60
13591;DHT22;6866;50.778;7.206;2022-12-18T17:06:32;-1.00;99.20
13591;DHT22;6866;50.778;7.206;2022-12-18T17:09:03;-0.90;98.60
13591;DHT22;6866;50.778;7.206;2022-12-18T17:11:31;-1.00;98.80
13591;DHT22;6866;50.778;7.206;2022-12-18T17:13:57;-0.90;98.40
13591;DHT22;6866;50.778;7.206;2022-12-18T17:16:24;-0.90;98.60
13591;DHT22;6866;50.778;7.206;2022-12-18T17:18:51;-0.80;98.50
13591;DHT22;6866;50.778;7.206;2022-12-18T17:21:17;-0.90;98.20
13591;DHT22;6866;50.778;7.206;2022-12-18T17:23:43;-1.00;98.40
13591;DHT22;6866;50.778;7.206;2022-12-18T17:26:10;-0.90;98.60
13591;DHT22;6866;50.778;7.206;2022-12-18T17:28:37;-1.00;98.30
13591;DHT22;6866;50.778;7.206;2022-12-18T17:31:15;-1.10;98.90
13591;DHT22;6866;50.778;7.206;2022-12-18T17:33:42;-1.10;98.60
13591;DHT22;6866;50.778;7.206;2022-12-18T17:36:08;-0.90;99.20
13591;DHT22;6866;50.778;7.206;2022-12-18T17:38:34;-0.90;98.80
13591;DHT22;6866;50.778;7.206;2022-12-18T17:41:04;-1.00;98.50
13591;DHT22;6866;50.778;7.206;2022-12-18T17:43:30;-0.90;98.80
13591;DHT22;6866;50.778;7.206;2022-12-18T17:46:00;-1.00;98.20
13591;DHT22;6866;50.778;7.206;2022-12-18T17:48:26;-1.00;98.70
13591;DHT22;6866;50.778;7.206;2022-12-18T17:50:51;-1.10;98.80
13591;DHT22;6866;50.778;7.206;2022-12-18T17:53:17;-1.10;99.20